الصفحة الرئيسية
METAR-TAF:

METAR-TAF

مطار :

بورت أوف سبين, ترينيداد, ترينيداد وتوباغو

دائرة عرض: 10-37N, خط طول: 061-21W, ارتفاع: 12 متر

مراقبة الطقس الحالي

تاريخ ووقت الإصدار 47 دقيقة قبل الساعة 12:00UTC
ريح 3 عقدة من الشرق
درجة الحرارة 25°درجة مئوية
الرطوبة 89%
ضغط 1015 hPa
الرؤية 10 كم أو أكثر
غيوم قليلة على ارتفاع 1500 قدم
زخات من الأمطار الخفيفة, زخات في الجوار, زخات في الجوار

METAR: TTPP 201200Z 10003KT 9999 -SHRA VCSH FEW015 25/23 Q1015 NOSIG VCSH E S

زمن: 08:47 (12:47 UTC)

توقعات

تاريخ ووقت الإصدار 2ساعات و 47 دقيقة قبل الساعة 10:00UTC
التوقعات صالحة من20 الساعة 12 UTC إلى 21 الساعة 12 UTC
ريح 12 عقدة من الشرق/الجنوب الشرقي
الرؤية 10 كم أو أكثر
غيوم متفرقة على ارتفاع 2000 قدم
مؤقت
من 20 الساعة 12 UTC إلى 20 الساعة 16 UTC
زخات من المطر
أصبح
من 20 الساعة 23 UTC إلى 21 الساعة 01 UTC
ريح 5 عقدة من الشرق
غيوم قليلة على ارتفاع 1800 قدم

TAF: TTPP 201000Z 2012/2112 11012KT 9999 SCT020 TEMPO 2012/2016 SHRA BECMG 2023/2101 10005KT FEW018

أرصاد الطقس والتوقعات من أكثر من 4000 مطار (تقارير الطقس للمطار METAR والتنبؤ بالطقس بالمطارTAF).

المحطات المتاحة هي النقط الصفراء والحمراء على الخريطة.

حرك المؤشر فوق النقطة لمعرفة اسم المحطة.

ثم انقر لمعرفة أرصاد وتوقعات الطقس.

لتغيير الخارطة: اضغط على الأزرار الخضراء مع رمز الصليب الأسود للتكبير. على الزر الأخضر مع شرطة للتصغير، أو على الأسهم الخضراء للخرائط المجاورة.


METAR-TAF: